Time,TemperatureF,DewpointF,PressureIn,WindDirection,WindDirectionDegrees,WindSpeedMPH,WindSpeedGustMPH,Humidity,HourlyPrecipIn,Conditions,Clouds,dailyrainin,SolarRadiationWatts/m^2,SoftwareType,DateUTC
2013-07-15 00:11:00,93.0,64.0,-100.00,NW,312,2.0,5.0,39,0.00,,,0.00,0.000000,,2013-07-15 07:11:00,
2013-07-15 00:21:00,93.0,64.0,-100.00,NW,312,2.0,5.0,39,0.00,,,0.00,0.000000,,2013-07-15 07:21:00,
2013-07-15 00:32:00,93.0,64.0,-100.00,NW,312,2.0,5.0,39,0.00,,,0.00,0.000000,,2013-07-15 07:32:00,
2013-07-15 00:43:00,93.0,64.0,-100.00,NW,312,2.0,5.0,39,0.00,,,0.00,0.000000,,2013-07-15 07:43:00,
2013-07-15 01:22:00,91.0,64.0,-100.00,SSW,192,4.0,6.0,41,0.00,,,0.00,0.000000,,2013-07-15 08:22:00,
2013-07-15 01:32:00,91.0,64.0,-100.00,SSW,192,4.0,6.0,41,0.00,,,0.00,0.000000,,2013-07-15 08:32:00,
2013-07-15 01:43:00,91.0,64.0,-100.00,SSW,192,4.0,6.0,41,0.00,,,0.00,0.000000,,2013-07-15 08:43:00,
2013-07-15 02:11:00,89.0,66.0,-100.00,South,187,4.0,7.0,47,0.00,,,0.00,0.000000,,2013-07-15 09:11:00,
2013-07-15 02:22:00,89.0,66.0,-100.00,South,187,4.0,7.0,47,0.00,,,0.00,0.000000,,2013-07-15 09:22:00,
2013-07-15 02:32:00,89.0,66.0,-100.00,South,187,4.0,7.0,47,0.00,,,0.00,0.000000,,2013-07-15 09:32:00,
2013-07-15 02:42:00,89.0,66.0,-100.00,South,187,4.0,7.0,47,0.00,,,0.00,0.000000,,2013-07-15 09:42:00,
2013-07-15 03:11:00,90.0,64.0,-100.00,SSE,167,5.0,8.0,43,0.00,,,0.00,0.000000,,2013-07-15 10:11:00,
2013-07-15 03:21:00,90.0,64.0,-100.00,SSE,167,5.0,8.0,43,0.00,,,0.00,0.000000,,2013-07-15 10:21:00,
2013-07-15 03:32:00,90.0,64.0,-100.00,SSE,167,5.0,8.0,43,0.00,,,0.00,0.000000,,2013-07-15 10:32:00,
2013-07-15 03:42:00,90.0,64.0,-100.00,SSE,167,5.0,8.0,43,0.00,,,0.00,0.000000,,2013-07-15 10:42:00,
2013-07-15 04:11:00,87.0,65.0,-100.00,SSE,160,5.0,6.0,48,0.00,,,0.00,0.000000,,2013-07-15 11:11:00,
2013-07-15 04:22:00,87.0,65.0,-100.00,SSE,160,5.0,6.0,48,0.00,,,0.00,0.000000,,2013-07-15 11:22:00,
2013-07-15 04:32:00,87.0,65.0,-100.00,SSE,160,5.0,6.0,48,0.00,,,0.00,0.000000,,2013-07-15 11:32:00,
2013-07-15 04:42:00,87.0,65.0,-100.00,SSE,160,5.0,6.0,48,0.00,,,0.00,0.000000,,2013-07-15 11:42:00,
2013-07-15 05:11:00,84.0,64.0,-100.00,NW,308,2.0,7.0,52,0.00,,,0.00,0.000000,,2013-07-15 12:11:00,
2013-07-15 05:22:00,84.0,64.0,-100.00,NW,308,2.0,7.0,52,0.00,,,0.00,0.000000,,2013-07-15 12:22:00,
2013-07-15 05:32:00,84.0,64.0,-100.00,NW,308,2.0,7.0,52,0.00,,,0.00,0.000000,,2013-07-15 12:32:00,
2013-07-15 05:42:00,84.0,64.0,-100.00,NW,308,2.0,7.0,52,0.00,,,0.00,0.000000,,2013-07-15 12:42:00,
2013-07-15 06:11:00,84.0,65.0,-100.00,SSE,159,5.0,9.0,53,0.00,,,0.00,1.000000,,2013-07-15 13:11:00,
2013-07-15 06:22:00,84.0,65.0,-100.00,SSE,159,5.0,9.0,53,0.00,,,0.00,1.000000,,2013-07-15 13:22:00,
2013-07-15 06:32:00,84.0,65.0,-100.00,SSE,159,5.0,9.0,53,0.00,,,0.00,1.000000,,2013-07-15 13:32:00,
2013-07-15 06:43:00,84.0,65.0,-100.00,SSE,159,5.0,9.0,53,0.00,,,0.00,1.000000,,2013-07-15 13:43:00,
2013-07-15 07:11:00,86.0,67.0,-100.00,South,176,4.0,6.0,53,0.00,,,0.00,50.000000,,2013-07-15 14:11:00,
2013-07-15 07:22:00,86.0,67.0,-100.00,South,176,4.0,6.0,53,0.00,,,0.00,50.000000,,2013-07-15 14:22:00,
2013-07-15 07:33:00,86.0,67.0,-100.00,South,176,4.0,6.0,53,0.00,,,0.00,50.000000,,2013-07-15 14:33:00,
2013-07-15 07:42:00,86.0,67.0,-100.00,South,176,4.0,6.0,53,0.00,,,0.00,50.000000,,2013-07-15 14:42:00,
2013-07-15 08:23:00,92.0,66.0,-100.00,South,170,6.0,9.0,43,0.00,,,0.00,271.000000,,2013-07-15 15:23:00,
2013-07-15 08:34:00,92.0,66.0,-100.00,South,170,6.0,9.0,43,0.00,,,0.00,271.000000,,2013-07-15 15:34:00,
2013-07-15 08:44:00,92.0,66.0,-100.00,South,170,6.0,9.0,43,0.00,,,0.00,271.000000,,2013-07-15 15:44:00,
2013-07-15 09:14:00,97.0,63.0,-100.00,SSE,165,6.0,12.0,33,0.00,,,0.00,463.000000,,2013-07-15 16:14:00,
2013-07-15 09:23:00,97.0,63.0,-100.00,SSE,165,6.0,12.0,33,0.00,,,0.00,463.000000,,2013-07-15 16:23:00,
2013-07-15 09:32:00,97.0,63.0,-100.00,SSE,165,6.0,12.0,33,0.00,,,0.00,463.000000,,2013-07-15 16:32:00,
2013-07-15 09:44:00,97.0,63.0,-100.00,SSE,165,6.0,12.0,33,0.00,,,0.00,463.000000,,2013-07-15 16:44:00,
2013-07-15 10:13:00,100.0,65.0,-100.00,SSE,164,7.0,12.0,32,0.00,,,0.00,646.000000,,2013-07-15 17:13:00,
2013-07-15 10:23:00,100.0,65.0,-100.00,SSE,164,7.0,12.0,32,0.00,,,0.00,646.000000,,2013-07-15 17:23:00,
2013-07-15 11:24:00,105.0,62.0,-100.00,SSE,160,7.0,11.0,25,0.00,,,0.00,814.000000,,2013-07-15 18:24:00,
2013-07-15 11:34:00,105.0,62.0,-100.00,SSE,160,7.0,11.0,25,0.00,,,0.00,814.000000,,2013-07-15 18:34:00,
2013-07-15 11:45:00,105.0,62.0,-100.00,SSE,160,7.0,11.0,25,0.00,,,0.00,814.000000,,2013-07-15 18:45:00,
2013-07-15 12:11:00,107.0,61.0,-100.00,SSE,150,7.0,12.0,23,0.00,,,0.00,927.000000,,2013-07-15 19:11:00,
2013-07-15 12:24:00,107.0,61.0,-100.00,SSE,150,7.0,12.0,23,0.00,,,0.00,927.000000,,2013-07-15 19:24:00,
2013-07-15 12:34:00,107.0,61.0,-100.00,SSE,150,7.0,12.0,23,0.00,,,0.00,927.000000,,2013-07-15 19:34:00,
2013-07-15 13:14:00,108.0,58.0,-100.00,SSE,155,8.0,14.0,20,0.00,,,0.00,991.000000,,2013-07-15 20:14:00,
2013-07-15 13:33:00,108.0,58.0,-100.00,SSE,155,8.0,14.0,20,0.00,,,0.00,991.000000,,2013-07-15 20:33:00,
2013-07-15 13:43:00,108.0,58.0,-100.00,SSE,155,8.0,14.0,20,0.00,,,0.00,991.000000,,2013-07-15 20:43:00,
2013-07-15 14:12:00,108.0,58.0,-100.00,SE,141,11.0,19.0,20,0.00,,,0.00,994.000000,,2013-07-15 21:12:00,
2013-07-15 14:23:00,108.0,58.0,-100.00,SE,141,11.0,19.0,20,0.00,,,0.00,994.000000,,2013-07-15 21:23:00,
2013-07-15 14:34:00,108.0,58.0,-100.00,SE,141,11.0,19.0,20,0.00,,,0.00,994.000000,,2013-07-15 21:34:00,
2013-07-15 14:44:00,108.0,58.0,-100.00,SE,141,11.0,19.0,20,0.00,,,0.00,994.000000,,2013-07-15 21:44:00,
2013-07-15 15:15:00,110.0,55.0,-100.00,SSW,205,9.0,17.0,17,0.00,,,0.00,931.000000,,2013-07-15 22:15:00,
2013-07-15 15:22:00,110.0,55.0,-100.00,SSW,205,9.0,17.0,17,0.00,,,0.00,931.000000,,2013-07-15 22:22:00,
2013-07-15 15:34:00,110.0,55.0,-100.00,SSW,205,9.0,17.0,17,0.00,,,0.00,931.000000,,2013-07-15 22:34:00,
2013-07-15 15:43:00,110.0,55.0,-100.00,SSW,205,9.0,17.0,17,0.00,,,0.00,931.000000,,2013-07-15 22:43:00,
2013-07-15 16:13:00,110.0,58.0,-100.00,South,176,10.0,18.0,19,0.00,,,0.00,809.000000,,2013-07-15 23:13:00,
2013-07-15 16:24:00,110.0,58.0,-100.00,South,176,10.0,18.0,19,0.00,,,0.00,809.000000,,2013-07-15 23:24:00,
2013-07-15 16:34:00,110.0,58.0,-100.00,South,176,10.0,18.0,19,0.00,,,0.00,809.000000,,2013-07-15 23:34:00,
2013-07-15 16:43:00,110.0,58.0,-100.00,South,176,10.0,18.0,19,0.00,,,0.00,809.000000,,2013-07-15 23:43:00,
2013-07-15 17:24:00,110.0,57.0,-100.00,SSW,202,8.0,17.0,18,0.00,,,0.00,627.000000,,2013-07-16 00:24:00,
2013-07-15 17:33:00,110.0,57.0,-100.00,SSW,202,8.0,17.0,18,0.00,,,0.00,627.000000,,2013-07-16 00:33:00,
2013-07-15 17:43:00,110.0,57.0,-100.00,SSW,202,8.0,17.0,18,0.00,,,0.00,627.000000,,2013-07-16 00:43:00,
2013-07-15 18:44:00,109.0,59.0,-100.00,South,179,7.0,17.0,20,0.00,,,0.00,421.000000,,2013-07-16 01:44:00,
2013-07-15 19:11:00,109.0,51.0,-100.00,SW,236,9.0,15.0,15,0.00,,,0.00,222.000000,,2013-07-16 02:11:00,
2013-07-15 19:24:00,109.0,51.0,-100.00,SW,236,9.0,15.0,15,0.00,,,0.00,222.000000,,2013-07-16 02:24:00,
2013-07-15 19:35:00,109.0,51.0,-100.00,SW,236,9.0,15.0,15,0.00,,,0.00,222.000000,,2013-07-16 02:35:00,
2013-07-15 19:44:00,109.0,51.0,-100.00,SW,236,9.0,15.0,15,0.00,,,0.00,222.000000,,2013-07-16 02:44:00,
2013-07-15 20:34:00,104.0,52.0,-100.00,SW,225,6.0,12.0,18,0.00,,,0.00,51.000000,,2013-07-16 03:34:00,
2013-07-15 20:44:00,104.0,52.0,-100.00,SW,225,6.0,12.0,18,0.00,,,0.00,51.000000,,2013-07-16 03:44:00,